createdAt,value
2023-02-22T00:01:38.053Z,30.85
2023-02-22T00:04:06.815Z,28.48
2023-02-22T00:06:39.202Z,28.80
2023-02-22T00:09:06.957Z,27.83
2023-02-22T00:11:35.514Z,27.20
2023-02-22T00:14:02.476Z,27.77
2023-02-22T00:16:30.813Z,27.27
2023-02-22T00:18:57.511Z,29.75
2023-02-22T00:21:23.972Z,28.33
2023-02-22T00:23:50.500Z,28.27
2023-02-22T00:26:20.141Z,27.52
2023-02-22T00:28:48.891Z,28.65
2023-02-22T00:31:16.144Z,31.30
2023-02-22T00:33:43.373Z,27.73
2023-02-22T00:36:12.647Z,28.42
2023-02-22T00:38:40.241Z,30.45
2023-02-22T00:41:07.210Z,25.25
2023-02-22T00:43:34.215Z,26.10
2023-02-22T00:46:01.088Z,29.13
2023-02-22T00:48:28.325Z,28.60
2023-02-22T00:50:57.701Z,30.67
2023-02-22T00:53:25.630Z,28.63
2023-02-22T00:55:53.119Z,29.42
2023-02-22T00:58:20.592Z,27.05
2023-02-22T01:00:47.774Z,28.63
2023-02-22T01:03:18.000Z,31.15
2023-02-22T01:05:45.269Z,29.58
2023-02-22T01:08:14.185Z,30.45
2023-02-22T01:10:41.075Z,31.52
2023-02-22T01:13:09.647Z,30.70
2023-02-22T01:15:39.312Z,31.23
2023-02-22T01:18:06.684Z,29.65
2023-02-22T01:20:33.757Z,28.20
2023-02-22T01:23:03.579Z,27.45
2023-02-22T01:25:31.869Z,28.95
2023-02-22T01:28:00.289Z,31.40
2023-02-22T01:30:30.028Z,32.45
2023-02-22T01:32:56.770Z,28.92
2023-02-22T01:35:27.847Z,29.90
2023-02-22T01:37:54.898Z,27.42
2023-02-22T01:40:28.584Z,31.50
2023-02-22T01:42:59.784Z,29.58
2023-02-22T01:45:35.256Z,28.25
2023-02-22T01:48:08.730Z,29.23
2023-02-22T01:50:44.417Z,28.98
2023-02-22T01:53:14.969Z,29.65
2023-02-22T01:55:42.482Z,30.80
2023-02-22T01:58:10.140Z,35.92
2023-02-22T02:00:36.801Z,36.75
2023-02-22T02:03:09.806Z,32.30
2023-02-22T02:05:37.871Z,35.00
2023-02-22T02:08:28.087Z,32.70
2023-02-22T02:10:56.351Z,36.10
2023-02-22T02:13:22.855Z,40.85
2023-02-22T02:15:52.888Z,37.65
2023-02-22T02:18:19.420Z,38.42
2023-02-22T02:21:10.115Z,35.80
2023-02-22T02:23:55.392Z,31.40
2023-02-22T02:26:30.182Z,35.53
2023-02-22T02:29:27.561Z,37.65
2023-02-22T02:32:06.524Z,34.58
2023-02-22T02:34:58.829Z,33.65
2023-02-22T02:37:40.807Z,34.70
2023-02-22T02:40:11.410Z,34.58
2023-02-22T02:43:01.306Z,35.47
2023-02-22T02:45:47.629Z,33.60
2023-02-22T02:48:17.356Z,37.40
2023-02-22T02:50:58.076Z,35.15
2023-02-22T02:53:37.284Z,37.80
2023-02-22T02:56:04.527Z,34.95
2023-02-22T02:58:31.172Z,38.17
2023-02-22T03:01:01.526Z,39.30
2023-02-22T03:03:37.510Z,39.15
2023-02-22T03:06:03.896Z,42.70
2023-02-22T03:09:04.114Z,42.90
2023-02-22T03:11:42.329Z,39.45
2023-02-22T03:14:41.177Z,41.58
2023-02-22T03:17:23.749Z,36.58
2023-02-22T03:20:04.671Z,36.08
2023-02-22T03:22:48.066Z,38.03
2023-02-22T03:25:16.316Z,44.67
2023-02-22T03:27:46.390Z,41.22
2023-02-22T03:30:25.941Z,36.40
2023-02-22T03:33:10.727Z,28.90
2023-02-22T03:36:15.296Z,35.83
2023-02-22T03:38:44.313Z,34.67
2023-02-22T03:41:24.061Z,35.90
2023-02-22T03:44:05.395Z,31.45
2023-02-22T03:46:41.290Z,32.40
2023-02-22T03:49:25.855Z,25.42
2023-02-22T03:51:52.587Z,26.55
2023-02-22T03:54:19.158Z,31.90
2023-02-22T03:57:00.623Z,32.78
2023-02-22T03:59:28.019Z,29.40
2023-02-22T04:01:55.451Z,31.08
2023-02-22T04:04:21.997Z,24.98
2023-02-22T04:06:48.581Z,34.42
2023-02-22T04:09:15.990Z,25.45
2023-02-22T04:11:42.527Z,25.77
2023-02-22T04:14:09.242Z,21.92
2023-02-22T04:16:35.761Z,18.55
2023-02-22T04:19:02.447Z,20.02
2023-02-22T04:21:28.854Z,23.67
2023-02-22T04:23:55.299Z,25.13
2023-02-22T04:26:21.735Z,25.15
2023-02-22T04:28:48.200Z,22.95
2023-02-22T04:31:15.650Z,23.02
2023-02-22T04:33:42.864Z,24.55
2023-02-22T04:36:10.724Z,23.30
2023-02-22T04:38:37.471Z,22.08
2023-02-22T04:41:03.984Z,22.08
2023-02-22T04:43:30.534Z,21.88
2023-02-22T04:45:57.081Z,22.27
2023-02-22T04:48:23.607Z,21.65
2023-02-22T04:50:51.153Z,22.75
2023-02-22T04:53:17.749Z,26.77
2023-02-22T04:55:44.238Z,20.58
2023-02-22T04:58:10.740Z,19.38
2023-02-22T05:00:37.222Z,22.85
2023-02-22T05:03:04.130Z,22.15
2023-02-22T05:05:30.581Z,19.35
2023-02-22T05:07:57.292Z,25.38
2023-02-22T05:10:24.836Z,29.77
2023-02-22T05:12:51.783Z,30.58
2023-02-22T05:15:20.422Z,31.60
2023-02-22T05:17:47.262Z,20.60
2023-02-22T05:20:22.980Z,26.98
2023-02-22T05:22:49.545Z,20.45
2023-02-22T05:25:16.381Z,22.08
2023-02-22T05:27:42.880Z,20.42
2023-02-22T05:30:11.842Z,22.63
2023-02-22T05:32:38.498Z,22.42
2023-02-22T05:35:06.039Z,18.48
2023-02-22T05:37:32.585Z,21.65
2023-02-22T05:39:59.451Z,22.58
2023-02-22T05:42:25.921Z,22.45
2023-02-22T05:44:52.389Z,21.83
2023-02-22T05:47:28.066Z,21.55
2023-02-22T05:49:54.509Z,28.45
2023-02-22T05:52:21.207Z,21.05
2023-02-22T05:54:47.653Z,19.50
2023-02-22T05:57:14.442Z,23.85
2023-02-22T05:59:41.081Z,22.83
2023-02-22T06:02:08.505Z,20.88
2023-02-22T06:04:35.286Z,18.42
2023-02-22T06:07:01.732Z,20.95
2023-02-22T06:09:28.203Z,17.95
2023-02-22T06:11:55.220Z,21.52
2023-02-22T06:14:21.638Z,22.98
2023-02-22T06:16:56.173Z,19.83
2023-02-22T06:19:23.095Z,26.88
2023-02-22T06:21:53.994Z,18.90
2023-02-22T06:24:21.219Z,19.48
2023-02-22T06:26:54.168Z,20.75
2023-02-22T06:29:20.627Z,20.30
2023-02-22T06:31:47.182Z,24.75
2023-02-22T06:34:13.697Z,17.45
2023-02-22T06:36:40.129Z,19.17
2023-02-22T06:39:06.576Z,19.23
2023-02-22T06:41:37.186Z,19.02
2023-02-22T06:44:03.801Z,18.23
2023-02-22T06:46:30.316Z,19.05
2023-02-22T06:48:59.422Z,17.17
2023-02-22T06:51:27.363Z,18.85
2023-02-22T06:53:53.822Z,18.42
2023-02-22T06:56:20.976Z,18.33
2023-02-22T06:58:49.368Z,20.42
2023-02-22T07:01:16.577Z,20.02
2023-02-22T07:03:43.440Z,19.80
2023-02-22T07:06:10.770Z,21.98
2023-02-22T07:08:37.357Z,19.42
2023-02-22T07:11:04.008Z,18.30
2023-02-22T07:13:30.459Z,17.00
2023-02-22T07:15:56.949Z,21.27
2023-02-22T07:18:24.141Z,18.50
2023-02-22T07:20:50.852Z,19.27
2023-02-22T07:23:17.809Z,17.05
2023-02-22T07:25:44.527Z,16.65
2023-02-22T07:28:11.628Z,17.55
2023-02-22T07:30:38.317Z,19.00
2023-02-22T07:33:10.545Z,21.17
2023-02-22T07:35:46.536Z,20.77
2023-02-22T07:38:15.224Z,17.15
2023-02-22T07:40:42.548Z,19.00
2023-02-22T07:43:21.382Z,19.58
2023-02-22T07:45:50.031Z,16.95
2023-02-22T07:48:18.353Z,18.38
2023-02-22T07:50:45.061Z,18.92
2023-02-22T07:53:33.150Z,14.15
2023-02-22T07:56:01.944Z,21.23
2023-02-22T07:58:32.254Z,17.02
2023-02-22T08:00:59.489Z,17.10
2023-02-22T08:03:26.989Z,15.63
2023-02-22T08:05:55.885Z,15.55
2023-02-22T08:08:23.572Z,16.13
2023-02-22T08:10:51.381Z,16.60
2023-02-22T08:13:19.041Z,17.95
2023-02-22T08:15:47.210Z,19.75
2023-02-22T08:18:16.621Z,20.63
2023-02-22T08:20:44.729Z,20.83
2023-02-22T08:23:14.478Z,20.52
2023-02-22T08:25:41.383Z,19.75
2023-02-22T08:28:11.982Z,20.90
2023-02-22T08:30:40.664Z,19.92
2023-02-22T08:33:07.559Z,24.67
2023-02-22T08:35:34.431Z,21.05
2023-02-22T08:38:03.783Z,21.08
2023-02-22T08:40:33.493Z,19.48
2023-02-22T08:43:01.606Z,21.42
2023-02-22T08:45:28.686Z,22.25
2023-02-22T08:47:55.371Z,24.60
2023-02-22T08:50:27.772Z,25.88
2023-02-22T08:52:58.612Z,22.90
2023-02-22T08:55:27.268Z,25.08
2023-02-22T08:57:53.702Z,25.05
2023-02-22T09:00:24.653Z,24.10
2023-02-22T09:02:52.511Z,27.63
2023-02-22T09:05:19.229Z,23.92
2023-02-22T09:07:46.073Z,24.73
2023-02-22T09:10:24.452Z,26.13
2023-02-22T09:12:58.051Z,29.23
2023-02-22T09:15:25.965Z,26.60
2023-02-22T09:17:53.683Z,28.02
2023-02-22T09:20:21.999Z,29.27
2023-02-22T09:22:49.530Z,24.65
2023-02-22T09:25:17.711Z,24.00
2023-02-22T09:27:47.915Z,21.92
2023-02-22T09:30:20.778Z,20.52
2023-02-22T09:32:47.395Z,21.15
2023-02-22T09:35:14.311Z,23.38
2023-02-22T09:37:44.552Z,21.35
2023-02-22T09:40:25.134Z,18.90
2023-02-22T09:43:27.728Z,22.67
2023-02-22T09:46:02.735Z,20.33
2023-02-22T09:48:33.923Z,24.35
2023-02-22T09:51:03.258Z,21.90
2023-02-22T09:53:41.674Z,20.88
2023-02-22T09:56:14.544Z,19.83
2023-02-22T09:58:54.817Z,20.27
2023-02-22T10:01:44.928Z,20.42
2023-02-22T10:04:47.500Z,17.48
2023-02-22T10:07:34.488Z,20.60
2023-02-22T10:10:06.332Z,19.73
2023-02-22T10:12:44.916Z,18.05
2023-02-22T10:15:23.699Z,17.50
2023-02-22T10:18:03.432Z,18.02
2023-02-22T10:20:54.015Z,18.95
2023-02-22T10:23:51.796Z,19.33
2023-02-22T10:26:28.233Z,17.88
2023-02-22T10:29:07.120Z,17.13
2023-02-22T10:31:40.640Z,19.60
2023-02-22T10:34:33.576Z,18.52
2023-02-22T10:37:21.017Z,18.65
2023-02-22T10:39:48.838Z,18.38
2023-02-22T10:42:15.829Z,17.98
2023-02-22T10:44:42.462Z,18.60
2023-02-22T10:47:16.600Z,17.08
2023-02-22T10:49:48.951Z,16.85
2023-02-22T10:52:26.143Z,17.38
2023-02-22T10:55:01.036Z,17.63
2023-02-22T10:57:36.400Z,18.30
2023-02-22T11:00:26.149Z,17.33
2023-02-22T11:03:00.383Z,19.50
2023-02-22T11:05:41.275Z,16.33
2023-02-22T11:08:15.962Z,18.23
2023-02-22T11:10:45.961Z,17.63
2023-02-22T11:13:26.467Z,15.23
2023-02-22T11:16:00.231Z,17.27
2023-02-22T11:18:35.915Z,17.00
2023-02-22T11:21:10.200Z,16.85
2023-02-22T11:23:39.010Z,16.73
2023-02-22T11:26:14.541Z,16.30
2023-02-22T11:28:49.321Z,16.17
2023-02-22T11:31:22.509Z,14.75
2023-02-22T11:36:37.909Z,15.80
2023-02-22T11:39:11.404Z,15.45
2023-02-22T11:41:38.078Z,15.25
2023-02-22T11:44:32.477Z,14.88
2023-02-22T11:47:06.852Z,14.23
2023-02-22T11:49:38.185Z,13.60
2023-02-22T11:52:22.940Z,13.85
2023-02-22T11:55:07.952Z,14.43
2023-02-22T11:57:46.446Z,13.85
2023-02-22T12:00:16.338Z,14.50
2023-02-22T12:03:04.638Z,13.43
2023-02-22T12:05:40.638Z,13.65
2023-02-22T12:08:19.632Z,14.25
2023-02-22T12:11:06.333Z,13.30
2023-02-22T12:13:58.516Z,12.82
2023-02-22T12:16:46.717Z,13.15
2023-02-22T12:19:30.839Z,13.73
2023-02-22T12:22:03.069Z,13.48
2023-02-22T12:24:45.258Z,13.00
2023-02-22T12:27:18.862Z,13.07
2023-02-22T12:29:51.099Z,12.98
2023-02-22T12:32:38.089Z,13.57
2023-02-22T12:35:23.431Z,13.48
2023-02-22T12:38:12.343Z,11.90
2023-02-22T12:40:58.005Z,11.50
2023-02-22T12:43:34.610Z,11.40
2023-02-22T12:46:11.418Z,10.73
2023-02-22T12:48:47.626Z,10.80
2023-02-22T12:51:43.007Z,9.80
2023-02-22T12:54:21.284Z,9.57
2023-02-22T12:56:54.596Z,11.43
2023-02-22T12:59:29.375Z,11.45
2023-02-22T13:02:01.406Z,11.10
2023-02-22T13:04:31.788Z,8.02
2023-02-22T13:07:18.600Z,8.52
2023-02-22T13:10:14.432Z,5.75
2023-02-22T13:15:31.209Z,6.07
2023-02-22T13:18:06.861Z,5.68
2023-02-22T13:20:42.267Z,6.05
2023-02-22T13:23:30.213Z,4.80
2023-02-22T13:26:29.033Z,5.65
2023-02-22T13:29:03.059Z,6.22
2023-02-22T13:31:40.880Z,5.20
2023-02-22T13:34:36.938Z,4.18
2023-02-22T13:37:17.724Z,4.70
2023-02-22T13:40:48.887Z,5.13
2023-02-22T13:43:52.930Z,4.80
2023-02-22T13:46:25.475Z,5.07
2023-02-22T13:48:54.902Z,3.65
2023-02-22T13:51:42.769Z,6.13
2023-02-22T13:54:16.141Z,5.40
2023-02-22T13:56:45.416Z,5.47
2023-02-22T13:59:35.986Z,2.75
2023-02-22T14:02:05.514Z,5.00
2023-02-22T14:04:38.192Z,5.03
2023-02-22T14:07:29.688Z,4.88
2023-02-22T14:09:59.137Z,5.28
2023-02-22T14:12:34.757Z,5.88
2023-02-22T14:15:26.511Z,3.72
2023-02-22T14:18:04.997Z,3.33
2023-02-22T14:20:40.138Z,5.75
2023-02-22T14:23:31.379Z,4.10
2023-02-22T14:26:17.763Z,5.82
2023-02-22T14:29:02.837Z,6.05
2023-02-22T14:31:38.031Z,6.10
2023-02-22T14:34:11.699Z,2.42
2023-02-22T14:37:13.952Z,4.95
2023-02-22T14:39:50.955Z,4.38
2023-02-22T14:42:28.769Z,4.70
2023-02-22T14:45:27.382Z,2.40
2023-02-22T14:48:25.019Z,5.50
2023-02-22T14:50:57.229Z,4.90
2023-02-22T14:54:01.979Z,5.60
2023-02-22T14:56:41.018Z,5.30
2023-02-22T14:59:17.551Z,5.55
2023-02-22T15:01:58.707Z,5.75
2023-02-22T15:04:32.747Z,5.13
2023-02-22T15:07:07.692Z,5.45
2023-02-22T15:09:37.499Z,3.63
2023-02-22T15:12:04.049Z,5.82
2023-02-22T15:14:39.078Z,5.22
2023-02-22T15:17:17.168Z,6.18
2023-02-22T15:19:44.008Z,5.90
2023-02-22T15:22:25.306Z,4.55
2023-02-22T15:25:05.148Z,6.53
2023-02-22T15:27:36.857Z,6.07
2023-02-22T15:30:20.139Z,6.68
2023-02-22T15:33:02.636Z,5.85
2023-02-22T15:35:33.380Z,6.32
2023-02-22T15:38:12.175Z,5.18
2023-02-22T15:40:43.103Z,3.63
2023-02-22T15:43:24.883Z,7.45
2023-02-22T15:45:52.105Z,6.40
2023-02-22T15:48:19.221Z,7.35
2023-02-22T15:51:07.273Z,7.43
2023-02-22T15:53:43.821Z,2.30
2023-02-22T15:56:39.581Z,6.78
2023-02-22T15:59:13.576Z,6.20
2023-02-22T16:01:43.446Z,8.80
2023-02-22T16:04:24.494Z,4.95
2023-02-22T16:07:01.006Z,7.57
2023-02-22T16:09:30.266Z,5.10
2023-02-22T16:12:21.921Z,9.48
2023-02-22T16:14:49.041Z,8.10
2023-02-22T16:17:24.739Z,9.27
2023-02-22T16:19:52.566Z,9.00
2023-02-22T16:22:28.009Z,10.45
2023-02-22T16:25:16.207Z,5.28
2023-02-22T16:27:47.780Z,7.10
2023-02-22T16:30:29.439Z,6.65
2023-02-22T16:32:57.320Z,11.27
2023-02-22T16:35:32.611Z,9.77
2023-02-22T16:38:04.919Z,7.05
2023-02-22T16:40:36.188Z,10.65
2023-02-22T16:43:06.491Z,9.65
2023-02-22T16:45:33.101Z,10.73
2023-02-22T16:48:00.409Z,10.13
2023-02-22T16:50:27.067Z,9.07
2023-02-22T16:52:55.690Z,11.95
2023-02-22T16:55:22.642Z,14.10
2023-02-22T16:57:50.513Z,13.35
2023-02-22T17:00:31.002Z,19.52
2023-02-22T17:03:05.525Z,16.70
2023-02-22T17:05:36.229Z,10.27
2023-02-22T17:08:04.208Z,17.00
2023-02-22T17:10:30.777Z,19.42
2023-02-22T17:12:58.529Z,20.75
2023-02-22T17:15:28.154Z,15.50
2023-02-22T17:17:56.251Z,14.80
2023-02-22T17:20:32.708Z,16.25
2023-02-22T17:23:05.008Z,13.52
2023-02-22T17:25:41.942Z,13.23
2023-02-22T17:28:09.132Z,13.93
2023-02-22T17:30:36.625Z,11.43
2023-02-22T17:33:06.446Z,13.07
2023-02-22T17:35:37.185Z,9.85
2023-02-22T17:38:06.142Z,13.48
2023-02-22T17:40:35.083Z,14.00
2023-02-22T17:43:01.901Z,16.42
2023-02-22T17:45:29.947Z,15.13
2023-02-22T17:47:59.035Z,14.50
2023-02-22T17:50:27.005Z,10.18
2023-02-22T17:52:53.831Z,7.30
2023-02-22T17:55:21.445Z,6.35
2023-02-22T17:57:53.131Z,11.15
2023-02-22T18:00:23.574Z,11.02
2023-02-22T18:02:51.493Z,8.07
2023-02-22T18:05:19.039Z,16.10
2023-02-22T18:07:46.914Z,12.27
2023-02-22T18:10:13.735Z,13.55
2023-02-22T18:12:41.418Z,13.10
2023-02-22T18:15:10.763Z,11.85
2023-02-22T18:17:38.102Z,16.73
2023-02-22T18:20:11.631Z,16.02
2023-02-22T18:22:42.091Z,17.23
2023-02-22T18:25:10.647Z,18.40
2023-02-22T18:27:37.595Z,17.63
2023-02-22T18:30:05.985Z,4.82
2023-02-22T18:32:33.534Z,4.82
2023-02-22T18:35:00.677Z,14.63
2023-02-22T18:37:29.944Z,14.90
2023-02-22T18:39:57.759Z,11.55
2023-02-22T18:42:28.497Z,7.75
2023-02-22T18:45:00.579Z,17.15
2023-02-22T18:47:27.420Z,16.67
2023-02-22T18:49:54.165Z,8.57
2023-02-22T18:52:21.075Z,12.93
2023-02-22T18:54:49.924Z,15.30
2023-02-22T18:57:16.991Z,11.40
2023-02-22T18:59:44.038Z,11.90
2023-02-22T19:02:14.053Z,19.95
2023-02-22T19:04:40.942Z,16.27
2023-02-22T19:07:07.402Z,18.30
2023-02-22T19:09:33.873Z,19.30
2023-02-22T19:12:00.411Z,20.67
2023-02-22T19:14:26.906Z,19.85
2023-02-22T19:16:56.473Z,19.08
2023-02-22T19:19:26.070Z,20.05
2023-02-22T19:21:53.098Z,21.17
2023-02-22T19:24:20.400Z,22.80
2023-02-22T19:26:57.228Z,26.73
2023-02-22T19:29:23.947Z,25.90
2023-02-22T19:31:51.682Z,26.95
2023-02-22T19:34:21.802Z,25.98
2023-02-22T19:36:49.008Z,29.02
2023-02-22T19:39:17.532Z,28.83
2023-02-22T19:41:44.292Z,27.50
2023-02-22T19:44:12.171Z,26.23
2023-02-22T19:46:39.573Z,28.02
2023-02-22T19:49:07.286Z,29.30
2023-02-22T19:51:34.251Z,26.98
2023-02-22T19:54:06.506Z,23.75
2023-02-22T19:56:35.486Z,35.33
2023-02-22T19:59:13.365Z,29.52
2023-02-22T20:01:41.303Z,27.00
2023-02-22T20:04:10.445Z,11.15
2023-02-22T20:06:42.486Z,16.65
2023-02-22T20:09:12.867Z,32.95
2023-02-22T20:11:39.439Z,27.88
2023-02-22T20:14:06.416Z,31.02
2023-02-22T20:16:34.638Z,29.15
2023-02-22T20:19:01.298Z,28.48
2023-02-22T20:21:32.593Z,32.03
2023-02-22T20:24:03.145Z,28.38
2023-02-22T20:26:32.174Z,30.02
2023-02-22T20:28:59.541Z,34.45
2023-02-22T20:31:26.987Z,29.98
2023-02-22T20:33:55.640Z,27.00
2023-02-22T20:36:22.484Z,31.92
2023-02-22T20:38:53.918Z,29.00
2023-02-22T20:41:29.381Z,27.67
2023-02-22T20:43:56.865Z,31.13
2023-02-22T20:46:24.932Z,27.90
2023-02-22T20:48:55.955Z,31.38
2023-02-22T20:51:23.291Z,31.17
2023-02-22T20:53:50.207Z,28.23
2023-02-22T20:56:24.154Z,31.00
2023-02-22T20:58:51.084Z,28.33
2023-02-22T21:01:20.177Z,16.98
2023-02-22T21:03:46.985Z,29.70
2023-02-22T21:06:15.835Z,25.48
2023-02-22T21:08:49.259Z,24.45
2023-02-22T21:11:17.733Z,28.23
2023-02-22T21:13:44.388Z,27.92
2023-02-22T21:16:18.718Z,28.55
2023-02-22T21:18:45.406Z,24.23
2023-02-22T21:21:12.554Z,25.63
2023-02-22T21:23:40.546Z,26.58
2023-02-22T21:26:13.324Z,29.92
2023-02-22T21:28:50.818Z,31.48
2023-02-22T21:31:18.867Z,28.63
2023-02-22T21:33:49.339Z,26.60
2023-02-22T21:36:16.311Z,26.45
2023-02-22T21:38:45.253Z,29.25
2023-02-22T21:41:13.029Z,27.00
2023-02-22T21:43:40.081Z,26.98
2023-02-22T21:46:10.585Z,29.83
2023-02-22T21:48:45.097Z,29.73
2023-02-22T21:51:14.083Z,26.08
2023-02-22T21:53:48.510Z,30.23
2023-02-22T21:56:18.886Z,26.47
2023-02-22T21:58:47.071Z,25.90
2023-02-22T22:01:17.390Z,28.17
2023-02-22T22:03:46.048Z,20.73
2023-02-22T22:06:14.045Z,15.98
2023-02-22T22:08:42.850Z,29.00
2023-02-22T22:11:11.213Z,30.17
2023-02-22T22:13:40.387Z,29.13
2023-02-22T22:16:12.197Z,30.65
2023-02-22T22:18:40.030Z,31.98
2023-02-22T22:21:22.676Z,32.33
2023-02-22T22:23:50.744Z,32.28
2023-02-22T22:26:19.944Z,27.52
2023-02-22T22:28:52.592Z,31.60
2023-02-22T22:31:21.446Z,32.53
2023-02-22T22:33:48.175Z,35.28
2023-02-22T22:36:17.095Z,31.50
2023-02-22T22:38:47.101Z,34.53
2023-02-22T22:41:16.638Z,31.40
2023-02-22T22:43:46.237Z,31.92
2023-02-22T22:46:15.376Z,27.45
2023-02-22T22:48:42.897Z,30.67
2023-02-22T22:51:12.478Z,35.40
2023-02-22T22:53:43.407Z,35.03
2023-02-22T22:56:25.941Z,32.17
2023-02-22T22:58:55.337Z,34.05
2023-02-22T23:01:27.922Z,30.23
2023-02-22T23:04:02.094Z,29.52
2023-02-22T23:06:32.947Z,27.75
2023-02-22T23:09:01.532Z,37.90
2023-02-22T23:11:30.147Z,35.25
2023-02-22T23:13:56.736Z,30.88
2023-02-22T23:16:24.273Z,36.47
2023-02-22T23:18:51.438Z,36.35
2023-02-22T23:21:19.791Z,36.00
2023-02-22T23:23:51.498Z,37.47
2023-02-22T23:26:18.176Z,36.55
2023-02-22T23:28:47.138Z,38.80
2023-02-22T23:31:16.971Z,40.15
2023-02-22T23:33:48.134Z,38.70
2023-02-22T23:36:16.511Z,38.50
2023-02-22T23:38:43.779Z,40.30
2023-02-22T23:41:12.933Z,35.95
2023-02-22T23:43:40.681Z,41.67
2023-02-22T23:46:12.989Z,38.75
2023-02-22T23:48:46.682Z,38.97
2023-02-22T23:51:16.163Z,38.10
2023-02-22T23:53:55.461Z,39.72
2023-02-22T23:56:28.511Z,40.38
2023-02-22T23:58:57.442Z,38.92
